Time;durP1;ratioP1;P1;durP2;ratioP2;P2;SDS_P1;SDS_P2;PMS_P1;PMS_P2;Temp;Humidity;BMP_temperature;BMP_pressure;BME280_temperature;BME280_humidity;BME280_pressure;Samples;Min_cycle;Max_cycle;Signal;HPM_P1;HPM_P2
2021/04/06 00:02:00;;;;;;;18.10;11.57;;;;;;;2.80;77.91;99717.50;5095470;28;20048;-62
2021/04/06 00:04:31;;;;;;;17.10;11.07;;;;;;;2.81;77.21;99715.56;5095376;28;20401;-62
2021/04/06 00:07:02;;;;;;;18.60;11.27;;;;;;;2.82;77.60;99731.78;5094011;28;20052;-62
2021/04/06 00:09:32;;;;;;;14.60;9.32;;;;;;;2.85;77.33;99731.22;5094805;28;20071;-62
2021/04/06 00:12:03;;;;;;;19.10;10.52;;;;;;;2.85;77.86;99736.72;5095029;28;20048;-62
2021/04/06 00:14:31;;;;;;;19.08;11.32;;;;;;;2.93;77.60;99737.25;5094632;28;20481;-60
2021/04/06 00:17:01;;;;;;;26.73;10.90;;;;;;;2.92;76.68;99739.19;5094678;28;20044;-62
2021/04/06 00:19:31;;;;;;;;;;;;;;;2.93;76.30;99731.75;5096022;28;20473;-62
2021/04/06 00:22:01;;;;;;;15.63;9.13;;;;;;;2.81;77.20;99746.66;5094999;28;19920;-62
2021/04/06 00:24:28;;;;;;;;;;;;;;;2.80;77.97;99736.75;5095076;28;20047;-61
2021/04/06 00:27:04;;;;;;;22.42;10.57;;;;;;;2.76;77.27;99741.16;5094088;28;19939;-62
2021/04/06 00:29:35;;;;;;;19.25;11.30;;;;;;;2.77;78.03;99750.22;5095282;28;20052;-62
2021/04/06 00:32:04;;;;;;;18.98;11.55;;;;;;;2.84;78.99;99751.59;5094861;28;20052;-62
2021/04/06 00:34:33;;;;;;;23.90;11.82;;;;;;;2.88;78.39;99760.13;5094617;28;20048;-62
2021/04/06 00:37:07;;;;;;;19.48;11.55;;;;;;;2.90;78.68;99759.81;5092906;28;20075;-61
2021/04/06 00:39:36;;;;;;;19.52;10.60;;;;;;;2.94;77.73;99753.50;5093397;28;20060;-61
2021/04/06 00:42:05;;;;;;;20.50;10.95;;;;;;;2.99;77.62;99755.38;5094904;28;20499;-61
2021/04/06 00:44:37;;;;;;;16.95;10.35;;;;;;;3.04;76.81;99758.09;5094464;28;20063;-61
2021/04/06 00:47:05;;;;;;;17.58;10.38;;;;;;;3.03;76.77;99764.72;5093588;28;20493;-61
2021/04/06 00:49:34;;;;;;;19.42;10.63;;;;;;;3.10;76.03;99765.22;5093322;28;20055;-61
2021/04/06 00:52:05;;;;;;;17.67;10.75;;;;;;;3.14;75.92;99766.31;5094064;28;20067;-61
2021/04/06 00:54:35;;;;;;;17.38;10.55;;;;;;;3.17;75.44;99774.03;5094496;28;20055;-62
2021/04/06 00:57:04;;;;;;;16.60;10.98;;;;;;;3.19;75.82;99769.06;5094168;28;20135;-62
2021/04/06 00:59:32;;;;;;;17.20;11.23;;;;;;;3.22;75.67;99771.22;5091412;28;20056;-61
2021/04/06 01:02:01;;;;;;;19.40;11.48;;;;;;;3.22;75.62;99767.66;5093743;28;20055;-61
2021/04/06 01:04:32;;;;;;;19.00;11.80;;;;;;;3.27;74.83;99775.88;5093993;28;20048;-62
2021/04/06 01:07:09;;;;;;;18.33;11.38;;;;;;;3.28;74.65;99780.28;5094082;28;20078;-62
2021/04/06 01:09:41;;;;;;;12.40;9.00;;;;;;;3.28;74.39;99776.72;5093538;28;20055;-62
2021/04/06 01:12:09;;;;;;;11.73;8.27;;;;;;;3.28;73.21;99784.97;5094273;28;20063;-62
2021/04/06 01:14:38;;;;;;;11.05;7.13;;;;;;;3.29;73.74;99790.19;5093350;28;20055;-60
2021/04/06 01:17:07;;;;;;;12.68;7.70;;;;;;;3.32;72.79;99791.53;5094032;28;20054;-61
2021/04/06 01:19:35;;;;;;;12.43;7.90;;;;;;;3.30;73.65;99794.59;5093384;28;20476;-61
2021/04/06 01:22:07;;;;;;;12.38;7.10;;;;;;;3.32;73.09;99786.03;5093606;28;20055;-61
2021/04/06 01:24:36;;;;;;;12.05;6.95;;;;;;;3.33;73.10;99796.78;5093288;28;20044;-61
2021/04/06 01:27:07;;;;;;;10.50;6.88;;;;;;;3.33;72.95;99796.78;5093936;28;20397;-61
2021/04/06 01:29:34;;;;;;;10.82;6.30;;;;;;;3.38;72.46;99801.41;5092510;28;20055;-61
2021/04/06 01:32:02;;;;;;;9.80;6.18;;;;;;;3.40;72.47;99805.56;5093466;28;20052;-61
2021/04/06 01:34:29;;;;;;;9.38;6.07;;;;;;;3.42;72.71;99802.50;5092556;28;20409;-61
2021/04/06 01:36:58;;;;;;;10.52;6.13;;;;;;;3.44;71.96;99805.78;5093637;28;20428;-61
2021/04/06 01:39:28;;;;;;;11.80;5.88;;;;;;;3.47;72.25;99809.94;5091699;28;20059;-61
2021/04/06 01:41:59;;;;;;;8.77;5.85;;;;;;;3.45;71.95;99802.75;5092706;28;20079;-61
2021/04/06 01:44:27;;;;;;;5.47;3.08;;;;;;;3.41;71.25;99795.38;5093572;28;20048;-62
2021/04/06 01:46:56;;;;;;;5.70;3.25;;;;;;;3.42;71.15;99805.25;5093681;28;20067;-62
2021/04/06 01:49:24;;;;;;;7.80;3.70;;;;;;;3.41;71.07;99796.19;5092159;28;20059;-62
2021/04/06 01:51:54;;;;;;;8.93;3.65;;;;;;;3.45;70.56;99800.00;5092247;28;20051;-61
2021/04/06 01:54:22;;;;;;;6.97;3.42;;;;;;;3.45;71.12;99804.69;5093117;28;20051;-61
2021/04/06 01:56:53;;;;;;;6.38;3.88;;;;;;;3.46;71.08;99803.59;5092803;28;20052;-61
2021/04/06 01:59:24;;;;;;;6.00;3.25;;;;;;;3.48;71.14;99798.63;5093119;28;20052;-62
2021/04/06 02:01:55;;;;;;;6.22;3.63;;;;;;;3.51;70.64;99800.81;5072840;28;20075;-61
2021/04/06 02:04:24;;;;;;;7.45;4.10;;;;;;;3.56;70.83;99800.78;5072525;28;20059;-61
2021/04/06 02:06:52;;;;;;;9.90;4.40;;;;;;;3.55;70.90;99801.91;5072316;28;20048;-61
2021/04/06 02:09:21;;;;;;;6.70;3.95;;;;;;;3.55;69.97;99809.31;5072976;28;20044;-61
2021/04/06 02:11:49;;;;;;;7.93;3.85;;;;;;;3.57;70.05;99801.59;5070988;28;20063;-60
2021/04/06 02:14:17;;;;;;;7.45;3.42;;;;;;;3.55;69.98;99807.41;5072482;28;20051;-61
2021/04/06 02:16:51;;;;;;;11.10;4.28;;;;;;;3.55;69.31;99806.56;5072786;28;20405;-61
2021/04/06 02:19:26;;;;;;;13.05;3.72;;;;;;;3.58;69.47;99812.31;5072499;28;20059;-61
2021/04/06 02:21:56;;;;;;;7.65;3.60;;;;;;;3.60;69.42;99810.13;5071783;28;20501;-61
2021/04/06 02:24:36;;;;;;;9.98;4.28;;;;;;;3.59;70.09;99814.00;5072151;28;20493;-62
2021/04/06 02:27:07;;;;;;;;;;;;;;;3.60;69.66;99821.13;5073240;28;20044;-61
2021/04/06 02:29:38;;;;;;;7.13;3.20;;;;;;;3.64;69.80;99821.41;5072879;28;19920;-61
2021/04/06 02:32:08;;;;;;;8.75;3.28;;;;;;;3.61;69.57;99820.03;5072812;28;20055;-62
2021/04/06 02:34:40;;;;;;;11.95;3.30;;;;;;;3.67;69.76;99815.31;5071560;28;20053;-61
2021/04/06 02:37:15;;;;;;;11.05;3.35;;;;;;;3.70;69.64;99817.50;5064922;28;20056;-62
2021/04/06 02:39:42;;;;;;;7.38;2.88;;;;;;;3.76;69.76;99818.28;5072200;28;20059;-61
2021/04/06 02:42:20;;;;;;;10.20;3.30;;;;;;;3.76;68.92;99815.50;5071700;28;20072;-61
2021/04/06 02:44:48;;;;;;;9.90;3.80;;;;;;;3.74;69.69;99821.34;5071792;28;20040;-61
2021/04/06 02:47:17;;;;;;;12.70;4.40;;;;;;;3.75;68.91;99822.16;5072712;28;20044;-61
2021/04/06 02:49:45;;;;;;;8.23;3.88;;;;;;;3.77;68.85;99820.75;5072578;28;20053;-60
2021/04/06 02:52:14;;;;;;;10.90;4.80;;;;;;;3.80;69.63;99830.38;5072994;28;20056;-61
2021/04/06 02:54:41;;;;;;;10.82;4.32;;;;;;;3.79;69.29;99829.56;5071594;28;20511;-62
2021/04/06 02:57:22;;;;;;;10.35;4.72;;;;;;;3.83;69.03;99827.06;5071482;28;20059;-61
2021/04/06 02:59:50;;;;;;;8.10;4.47;;;;;;;3.85;69.03;99833.91;5072392;28;20055;-61
2021/04/06 03:02:18;;;;;;;13.40;4.90;;;;;;;3.87;69.23;99830.88;5072090;28;20064;-61
2021/04/06 03:04:47;;;;;;;13.63;5.00;;;;;;;3.84;68.55;99825.94;5070829;28;20052;-61
2021/04/06 03:07:20;;;;;;;10.13;4.65;;;;;;;3.86;68.50;99835.59;5062814;28;20060;-61
2021/04/06 03:09:52;;;;;;;8.32;4.20;;;;;;;3.88;68.69;99831.72;5070739;28;20052;-60
2021/04/06 03:12:19;;;;;;;11.02;4.72;;;;;;;3.84;68.78;99828.69;5071838;28;20416;-60
2021/04/06 03:14:50;;;;;;;8.00;5.10;;;;;;;3.86;68.92;99826.47;5071936;28;20051;-60
2021/04/06 03:17:20;;;;;;;8.70;5.10;;;;;;;3.84;68.92;99824.03;5071248;28;20063;-60
2021/04/06 03:19:55;;;;;;;9.80;4.97;;;;;;;3.82;68.97;99825.41;5072078;28;20055;-59
2021/04/06 03:22:23;;;;;;;7.88;5.25;;;;;;;3.79;69.42;99828.72;5072359;28;20075;-60
2021/04/06 03:24:50;;;;;;;12.40;5.38;;;;;;;3.80;69.57;99822.09;5072284;28;20052;-61
2021/04/06 03:27:30;;;;;;;15.70;5.82;;;;;;;3.76;69.21;99815.50;5062803;28;20060;-61
2021/04/06 03:29:57;;;;;;;;;;;;;;;3.71;69.62;99821.06;5072584;28;20052;-60
2021/04/06 03:32:25;;;;;;;12.15;6.28;;;;;;;3.74;69.73;99817.72;5071273;28;19920;-61
2021/04/06 03:34:53;;;;;;;9.43;5.68;;;;;;;3.73;69.71;99816.09;5071914;28;20052;-61
2021/04/06 03:37:21;;;;;;;15.70;6.32;;;;;;;3.76;69.22;99813.59;5064935;28;20057;-61
2021/04/06 03:39:49;;;;;;;11.48;5.63;;;;;;;3.77;69.94;99812.47;5069964;28;20493;-61
2021/04/06 03:42:24;;;;;;;12.18;6.82;;;;;;;3.78;69.54;99822.41;5071902;28;20048;-61
2021/04/06 03:44:53;;;;;;;10.95;6.60;;;;;;;3.82;69.61;99808.88;5071649;28;20059;-60
2021/04/06 03:47:20;;;;;;;15.88;8.07;;;;;;;3.81;70.22;99812.75;5066415;28;20493;-63
2021/04/06 03:49:49;;;;;;;15.20;7.72;;;;;;;3.83;69.98;99816.03;5070579;28;20504;-61
2021/04/06 03:52:16;;;;;;;14.93;8.45;;;;;;;3.79;71.10;99824.03;5071405;28;20048;-62
2021/04/06 03:54:46;;;;;;;16.10;7.78;;;;;;;3.85;70.53;99811.06;5071185;28;20055;-61
2021/04/06 03:57:35;;;;;;;17.27;9.02;;;;;;;3.86;71.04;99815.44;5071488;28;20044;-61
2021/04/06 04:00:05;;;;;;;14.07;7.60;;;;;;;3.83;70.88;99818.78;5057574;28;20068;-62
2021/04/06 04:02:32;;;;;;;22.75;8.93;;;;;;;3.82;70.77;99822.63;5075264;28;20052;-62
2021/04/06 04:05:04;;;;;;;14.60;7.88;;;;;;;3.79;70.76;99828.72;5075102;28;20060;-62
2021/04/06 04:07:33;;;;;;;14.70;7.72;;;;;;;3.79;70.88;99820.47;5092603;28;20492;-62
2021/04/06 04:10:00;;;;;;;14.77;7.75;;;;;;;3.73;71.48;99827.94;5088779;28;20058;-61
2021/04/06 04:12:27;;;;;;;17.13;8.00;;;;;;;3.73;71.42;99829.88;5094895;28;20075;-62
2021/04/06 04:14:55;;;;;;;17.88;7.70;;;;;;;3.73;71.45;99829.88;5095171;28;20500;-62
2021/04/06 04:17:22;;;;;;;17.00;7.60;;;;;;;3.71;70.76;99835.66;5094846;28;20048;-62
2021/04/06 04:19:49;;;;;;;16.92;8.10;;;;;;;3.68;70.46;99832.66;5093932;28;20509;-62
2021/04/06 04:22:16;;;;;;;13.95;6.88;;;;;;;3.70;70.75;99825.75;5095347;28;20052;-62
2021/04/06 04:24:43;;;;;;;16.77;7.90;;;;;;;3.70;69.54;99831.28;5095098;28;20492;-62
2021/04/06 04:27:10;;;;;;;14.43;7.65;;;;;;;3.70;70.54;99830.47;5095478;28;20051;-62
2021/04/06 04:29:37;;;;;;;15.65;7.35;;;;;;;3.69;69.92;99831.56;5093183;28;20059;-62
2021/04/06 04:32:12;;;;;;;17.15;6.88;;;;;;;3.71;70.11;99834.84;5094081;28;20064;-62
2021/04/06 04:34:41;;;;;;;16.83;7.43;;;;;;;3.72;70.93;99836.50;5094895;28;20496;-62
2021/04/06 04:37:09;;;;;;;16.38;7.25;;;;;;;3.75;70.43;99830.41;5094287;28;20056;-62
2021/04/06 04:39:36;;;;;;;12.77;6.63;;;;;;;3.74;70.76;99837.00;5093077;28;20056;-62
2021/04/06 04:42:04;;;;;;;17.00;7.53;;;;;;;3.72;71.30;99834.56;5094438;28;20056;-62
2021/04/06 04:44:31;;;;;;;12.38;6.13;;;;;;;3.71;72.13;99834.84;5094357;28;20044;-61
2021/04/06 04:46:58;;;;;;;13.57;6.97;;;;;;;3.72;72.38;99844.78;5094333;28;20059;-62
2021/04/06 04:49:27;;;;;;;16.73;5.55;;;;;;;3.72;72.52;99831.81;5093550;28;20051;-61
2021/04/06 04:51:54;;;;;;;9.57;5.22;;;;;;;3.70;72.18;99831.28;5074520;28;20505;-63
2021/04/06 04:54:21;;;;;;;9.63;4.75;;;;;;;3.69;72.18;99842.56;5074319;28;20500;-62
2021/04/06 04:56:49;;;;;;;11.02;4.50;;;;;;;3.65;71.78;99826.63;5074082;28;20048;-62
2021/04/06 04:59:16;;;;;;;8.10;4.03;;;;;;;3.69;71.09;99826.84;5076438;28;20044;-62
2021/04/06 05:01:43;;;;;;;9.32;4.53;;;;;;;3.66;70.31;99835.69;5093546;28;20056;-62
2021/04/06 05:04:13;;;;;;;7.35;4.55;;;;;;;3.60;71.04;99832.13;5085510;28;20048;-60
2021/04/06 05:06:40;;;;;;;9.98;4.32;;;;;;;3.66;70.75;99843.97;5094015;28;20058;-61
2021/04/06 05:09:08;;;;;;;11.00;4.10;;;;;;;3.65;70.98;99843.16;5092849;28;20056;-61
2021/04/06 05:11:35;;;;;;;6.15;3.80;;;;;;;3.69;70.71;99840.63;5085993;28;20079;-61
2021/04/06 05:14:04;;;;;;;5.70;3.60;;;;;;;3.69;70.35;99851.63;5093797;28;20370;-61
2021/04/06 05:16:31;;;;;;;8.50;4.13;;;;;;;3.72;70.85;99853.03;5093527;28;20059;-62
2021/04/06 05:18:59;;;;;;;13.05;4.53;;;;;;;3.73;70.74;99852.72;5094360;28;20552;-62
2021/04/06 05:21:26;;;;;;;8.10;4.20;;;;;;;3.67;71.45;99848.34;5086478;28;20052;-61
2021/04/06 05:23:55;;;;;;;10.48;4.45;;;;;;;3.65;70.76;99859.66;5092543;28;20063;-61
2021/04/06 05:26:22;;;;;;;8.55;4.00;;;;;;;3.65;70.46;99864.34;5091851;28;20047;-61
2021/04/06 05:28:49;;;;;;;10.35;4.40;;;;;;;3.68;70.22;99855.53;5092583;28;20055;-61
2021/04/06 05:31:19;;;;;;;8.48;4.07;;;;;;;3.68;69.99;99860.22;5079623;28;20072;-61
2021/04/06 05:33:46;;;;;;;12.18;4.50;;;;;;;3.70;70.29;99864.31;5083505;28;20067;-60
2021/04/06 05:36:13;;;;;;;7.90;4.15;;;;;;;3.75;69.74;99868.97;5093975;28;20130;-61
2021/04/06 05:38:40;;;;;;;8.18;4.15;;;;;;;3.80;69.30;99869.78;5084458;28;20405;-61
2021/04/06 05:41:11;;;;;;;13.73;4.63;;;;;;;3.86;69.89;99859.53;5090209;28;20412;-61
2021/04/06 05:43:38;;;;;;;8.15;3.55;;;;;;;3.85;69.25;99866.97;5092938;28;20400;-61
2021/04/06 05:46:09;;;;;;;9.77;4.38;;;;;;;3.84;69.18;99867.25;5087049;28;20048;-60
2021/04/06 05:48:38;;;;;;;9.90;3.72;;;;;;;3.77;69.53;99872.28;5092833;28;20048;-59
2021/04/06 05:51:05;;;;;;;8.32;3.35;;;;;;;3.86;70.20;99871.41;5093102;28;20087;-61
2021/04/06 05:53:33;;;;;;;8.80;3.60;;;;;;;3.88;69.51;99871.09;5083864;28;20055;-61
2021/04/06 05:56:00;;;;;;;8.77;3.90;;;;;;;3.96;69.13;99870.50;5069467;28;20063;-61
2021/04/06 05:58:27;;;;;;;6.70;3.17;;;;;;;4.04;69.26;99869.88;5072240;28;20056;-61
2021/04/06 06:00:54;;;;;;;9.30;3.33;;;;;;;4.06;68.34;99873.19;5071854;28;20063;-59
2021/04/06 06:03:21;;;;;;;9.98;3.22;;;;;;;4.06;68.38;99873.19;5076283;28;20052;-61
2021/04/06 06:05:51;;;;;;;6.47;2.67;;;;;;;4.03;67.13;99884.78;5090866;28;20048;-60
2021/04/06 06:08:19;;;;;;;11.60;3.13;;;;;;;4.04;66.16;99878.16;5092948;28;20055;-60
2021/04/06 06:10:46;;;;;;;11.05;3.58;;;;;;;4.10;66.90;99876.19;5092577;28;20063;-61
2021/04/06 06:13:21;;;;;;;7.20;3.10;;;;;;;4.17;66.90;99881.38;5086025;28;20068;-61
2021/04/06 06:16:10;;;;;;;6.28;2.80;;;;;;;4.14;66.15;99887.47;5091399;28;20059;-61
2021/04/06 06:19:08;;;;;;;6.50;2.50;;;;;;;4.07;65.93;99891.38;5092773;28;20401;-61
2021/04/06 06:21:44;;;;;;;6.70;2.42;;;;;;;4.02;66.38;99893.34;5000589;28;20061;-60
2021/04/06 06:24:21;;;;;;;5.93;2.30;;;;;;;4.11;65.88;99899.06;5070784;28;20048;-61
2021/04/06 06:26:48;;;;;;;6.63;2.50;;;;;;;4.14;66.19;99898.50;5089713;28;20138;-61
2021/04/06 06:29:17;;;;;;;7.07;2.58;;;;;;;3.99;67.67;99903.00;5080852;28;20400;-48
2021/04/06 06:31:46;;;;;;;6.47;2.30;;;;;;;4.05;65.75;99901.88;5083371;28;20052;-58
2021/04/06 06:34:29;;;;;;;8.02;2.20;;;;;;;4.15;66.03;99903.72;5077145;28;20060;-55
2021/04/06 06:37:18;;;;;;;6.43;3.25;;;;;;;4.40;64.43;99905.47;5082819;28;20062;-57
2021/04/06 06:40:04;;;;;;;10.20;4.10;;;;;;;4.52;63.51;99898.78;5076346;28;20083;-58
2021/04/06 06:42:35;;;;;;;6.05;3.08;;;;;;;4.61;64.08;99894.28;5088078;28;20412;-58
2021/04/06 06:45:05;;;;;;;11.18;3.05;;;;;;;4.75;63.28;99886.16;5089922;28;20055;-57
2021/04/06 06:47:32;;;;;;;;;;;;;;;4.76;62.68;99896.06;5082830;28;20055;-57
2021/04/06 06:50:10;;;;;;;9.93;3.63;;;;;;;4.96;62.66;99897.84;5084453;28;19920;-58
2021/04/06 06:52:38;;;;;;;14.18;4.22;;;;;;;5.21;62.57;99881.00;5091160;28;20538;-58
2021/04/06 06:55:24;;;;;;;6.10;3.88;;;;;;;5.62;60.75;99888.78;5079327;28;20056;-57
2021/04/06 06:58:02;;;;;;;9.63;4.95;;;;;;;5.77;60.82;99886.94;5081715;28;20048;-58
2021/04/06 07:00:29;;;;;;;12.05;5.43;;;;;;;5.72;60.71;99887.84;5084068;28;20051;-58
2021/04/06 07:02:57;;;;;;;14.63;6.80;;;;;;;5.61;60.54;99889.91;5093686;28;20469;-57
2021/04/06 07:05:25;;;;;;;12.10;7.93;;;;;;;5.65;61.00;99890.97;5070865;28;20048;-57
2021/04/06 07:08:02;;;;;;;15.30;8.00;;;;;;;5.62;61.00;99891.53;5079228;28;20053;-57
2021/04/06 07:10:32;;;;;;;18.40;11.02;;;;;;;5.52;60.95;99891.66;5074593;28;20061;-58
2021/04/06 07:13:03;;;;;;;;;;;;;;;5.66;59.74;99889.00;5088102;28;20048;-57
2021/04/06 07:15:30;;;;;;;18.75;10.50;;;;;;;5.81;60.82;99882.47;5077398;28;20297;-55
2021/04/06 07:18:03;;;;;;;20.98;11.02;;;;;;;5.86;60.43;99880.47;5087324;28;20060;-59
2021/04/06 07:20:32;;;;;;;17.77;9.98;;;;;;;5.94;60.16;99886.44;5090754;28;20051;-59
2021/04/06 07:23:03;;;;;;;15.95;8.73;;;;;;;5.96;58.83;99896.09;5082070;28;20059;-58
2021/04/06 07:25:31;;;;;;;16.10;8.90;;;;;;;5.89;59.75;99895.63;5082465;28;20048;-56
2021/04/06 07:28:00;;;;;;;13.55;8.15;;;;;;;5.78;59.42;99889.41;5095478;28;20060;-59
2021/04/06 07:30:28;;;;;;;10.30;7.18;;;;;;;5.87;58.57;99898.69;5112263;28;20060;-58
2021/04/06 07:32:57;;;;;;;12.07;6.00;;;;;;;5.92;57.97;99892.25;5111845;28;20396;-57
2021/04/06 07:35:26;;;;;;;10.52;5.45;;;;;;;5.78;58.63;99899.66;5116028;28;20062;-58
2021/04/06 07:37:53;;;;;;;11.40;6.22;;;;;;;5.97;59.15;99894.19;5111381;28;20405;-58
2021/04/06 07:40:24;;;;;;;7.88;5.93;;;;;;;6.22;57.45;99887.44;5089386;28;20060;-58
2021/04/06 07:42:53;;;;;;;9.60;5.60;;;;;;;6.78;55.04;99892.03;5094448;28;20048;-58
2021/04/06 07:45:53;;;;;;;12.10;6.72;;;;;;;6.96;54.96;99893.13;5081145;28;20052;-59
2021/04/06 07:48:43;;;;;;;8.75;4.90;;;;;;;6.87;54.81;99892.19;5088528;28;20056;-59
2021/04/06 07:51:21;;;;;;;7.78;3.83;;;;;;;6.65;54.44;99903.91;5088252;28;20063;-58
2021/04/06 07:54:03;;;;;;;7.22;4.45;;;;;;;6.57;55.06;99901.81;5087773;28;20052;-59
2021/04/06 07:56:52;;;;;;;6.75;4.13;;;;;;;6.39;55.37;99897.97;5089816;28;20071;-59
2021/04/06 07:59:52;;;;;;;7.25;4.50;;;;;;;6.64;54.04;99900.31;5089125;28;20048;-58
2021/04/06 08:02:30;;;;;;;5.72;3.28;;;;;;;7.16;53.58;99899.41;5093104;28;20075;-59
2021/04/06 08:05:00;;;;;;;7.60;3.70;;;;;;;7.15;53.87;99897.78;5077494;28;20048;-60
2021/04/06 08:07:33;;;;;;;8.48;3.80;;;;;;;7.37;53.57;99888.75;5087050;28;20059;-60
2021/04/06 08:10:22;;;;;;;6.60;3.35;;;;;;;8.00;51.93;99896.31;5076981;28;20044;-60
2021/04/06 08:12:50;;;;;;;6.85;3.60;;;;;;;9.67;48.33;99885.94;5092698;28;20477;-60
2021/04/06 08:15:19;;;;;;;5.93;3.58;;;;;;;9.78;47.94;99894.81;5068616;28;20052;-60
2021/04/06 08:17:49;;;;;;;7.88;5.00;;;;;;;9.99;47.35;99886.66;5091925;28;20062;-60
2021/04/06 08:20:26;;;;;;;10.80;5.80;;;;;;;9.86;47.32;99891.22;5081572;28;20055;-60
2021/04/06 08:22:56;;;;;;;12.32;7.50;;;;;;;9.47;48.46;99900.44;5094484;28;20044;-61
2021/04/06 08:25:41;;;;;;;13.02;8.40;;;;;;;9.37;48.28;99909.88;5093522;28;20055;-61
2021/04/06 08:28:29;;;;;;;14.30;9.10;;;;;;;9.29;48.44;99902.31;5081982;28;20052;-61
2021/04/06 08:31:29;;;;;;;12.27;9.60;;;;;;;9.27;47.72;99902.63;5091311;28;20056;-58
2021/04/06 08:34:39;;;;;;;17.50;8.90;;;;;;;8.87;48.07;99902.59;5084727;28;20503;-61
2021/04/06 08:37:08;;;;;;;15.77;9.95;;;;;;;9.02;48.75;99897.78;5075838;28;20052;-59
2021/04/06 08:39:36;;;;;;;12.95;8.57;;;;;;;10.20;45.91;99903.56;5084068;28;20049;-60
2021/04/06 08:42:05;;;;;;;13.38;8.98;;;;;;;9.74;46.96;99899.38;5091145;28;20052;-59
2021/04/06 08:44:36;;;;;;;14.18;9.73;;;;;;;9.55;47.81;99906.03;5093392;28;20059;-60
2021/04/06 08:47:03;;;;;;;14.77;9.07;;;;;;;9.47;46.46;99897.66;5093016;28;20389;-60
2021/04/06 08:49:30;;;;;;;14.50;9.98;;;;;;;9.15;46.93;99905.19;5088688;28;20059;-60
2021/04/06 08:52:02;;;;;;;15.50;9.57;;;;;;;8.82;48.00;99902.72;5092498;28;20404;-60
2021/04/06 08:54:31;;;;;;;16.80;10.52;;;;;;;8.57;48.93;99903.34;5086019;28;20492;-59
2021/04/06 08:57:00;;;;;;;17.48;10.55;;;;;;;8.40;49.58;99896.50;5077036;28;20052;-60
2021/04/06 08:59:32;;;;;;;17.20;10.48;;;;;;;8.25;49.67;99894.91;5091445;28;20063;-60
2021/04/06 09:02:01;;;;;;;13.82;9.93;;;;;;;8.31;50.08;99890.84;5088718;28;20056;-59
2021/04/06 09:04:29;;;;;;;18.80;10.27;;;;;;;8.33;50.07;99885.00;5089076;28;20051;-58
2021/04/06 09:06:57;;;;;;;15.20;9.52;;;;;;;8.38;49.75;99887.69;5086711;28;20413;-60
2021/04/06 09:09:26;;;;;;;17.17;10.13;;;;;;;8.17;50.26;99886.50;5079403;28;20048;-58
2021/04/06 09:11:54;;;;;;;18.67;11.35;;;;;;;8.31;49.60;99879.75;5084951;28;20052;-60
2021/04/06 09:14:22;;;;;;;14.07;9.32;;;;;;;9.70;48.18;99873.34;5083623;28;20059;-59
2021/04/06 09:16:52;;;;;;;14.32;8.13;;;;;;;9.47;46.65;99881.81;5073739;28;20088;-60
2021/04/06 09:19:21;;;;;;;13.32;7.63;;;;;;;8.89;47.29;99886.41;5081840;28;20052;-60
2021/04/06 09:21:54;;;;;;;12.98;8.02;;;;;;;8.63;48.50;99877.09;5091716;28;20052;-60
2021/04/06 09:24:23;;;;;;;11.00;7.32;;;;;;;8.64;49.54;99878.75;5082763;28;20052;-58
2021/04/06 09:26:51;;;;;;;12.88;7.80;;;;;;;12.17;43.73;99870.19;5091511;28;20397;-58
2021/04/06 09:29:21;;;;;;;10.15;5.35;;;;;;;11.90;40.97;99857.56;5083859;28;20044;-59
2021/04/06 09:31:51;;;;;;;10.50;5.47;;;;;;;11.40;41.48;99861.09;5084227;28;20441;-61
2021/04/06 09:34:20;;;;;;;9.32;5.40;;;;;;;11.20;42.36;99862.66;5092883;28;20493;-60
2021/04/06 09:36:52;;;;;;;;;;;;;;;10.99;41.46;99856.19;5091663;28;20048;-60
2021/04/06 09:39:19;;;;;;;11.52;5.00;;;;;;;10.77;42.67;99861.66;5091416;28;19920;-60
2021/04/06 09:41:46;;;;;;;7.82;4.50;;;;;;;10.76;41.83;99854.41;5090262;28;20066;-59
2021/04/06 09:44:15;;;;;;;9.90;4.60;;;;;;;11.58;42.42;99840.31;5083021;28;20048;-59
2021/04/06 09:46:44;;;;;;;11.90;7.97;;;;;;;11.18;43.38;99845.44;5093282;28;20416;-59
2021/04/06 09:49:13;;;;;;;8.75;5.30;;;;;;;10.62;44.10;99853.78;5090104;28;20056;-57
2021/04/06 09:51:45;;;;;;;6.30;4.07;;;;;;;9.90;45.36;99855.25;5091821;28;20051;-59
2021/04/06 09:54:14;;;;;;;8.27;4.30;;;;;;;9.27;47.92;99854.59;5090877;28;20059;-59
2021/04/06 09:56:41;;;;;;;12.23;5.72;;;;;;;8.81;50.33;99855.81;5089839;28;20059;-60
2021/04/06 09:59:09;;;;;;;7.75;4.50;;;;;;;9.74;48.28;99847.38;5082620;28;20059;-60
2021/04/06 10:01:37;;;;;;;5.70;4.20;;;;;;;15.09;39.49;99844.88;5091383;28;20071;-60
2021/04/06 10:04:05;;;;;;;5.35;3.80;;;;;;;18.77;32.70;99834.56;5081488;28;20059;-60
2021/04/06 10:06:37;;;;;;;5.50;3.35;;;;;;;21.19;27.26;99825.28;5091316;28;20047;-60
2021/04/06 10:09:26;;;;;;;7.38;3.42;;;;;;;23.36;23.16;99810.03;5080959;28;20057;-61
2021/04/06 10:11:53;;;;;;;;;;;;;;;25.33;19.87;99804.13;5086612;28;20058;-61
2021/04/06 10:14:21;;;;;;;6.35;3.03;;;;;;;26.97;18.55;99807.09;5079057;28;20328;-62
2021/04/06 10:16:56;;;;;;;4.35;2.47;;;;;;;28.42;15.15;99802.97;5083314;28;20055;-63
2021/04/06 10:19:25;;;;;;;7.93;3.00;;;;;;;29.48;14.50;99795.19;5092611;28;20059;-62
2021/04/06 10:22:00;;;;;;;6.15;3.22;;;;;;;30.39;13.96;99778.50;5092412;28;20048;-61
2021/04/06 10:24:30;;;;;;;7.03;3.30;;;;;;;30.92;13.52;99781.41;5092648;28;20521;-61
2021/04/06 10:27:19;;;;;;;6.20;2.60;;;;;;;31.48;12.60;99776.69;5083601;28;20461;-61
2021/04/06 10:29:51;;;;;;;5.50;2.40;;;;;;;26.43;15.77;99788.25;5092446;28;20408;-61
2021/04/06 10:32:28;;;;;;;7.18;2.20;;;;;;;23.12;18.26;99782.63;5092459;28;20063;-61
2021/04/06 10:34:58;;;;;;;5.72;2.30;;;;;;;20.88;21.64;99768.19;5092594;28;20052;-61
2021/04/06 10:37:25;;;;;;;6.97;3.10;;;;;;;19.44;24.18;99778.00;5084501;28;20059;-60
2021/04/06 10:39:54;;;;;;;6.40;3.33;;;;;;;18.98;24.30;99774.75;5092463;28;20056;-61
2021/04/06 10:42:21;;;;;;;5.23;1.80;;;;;;;20.83;21.77;99779.09;5092368;28;20059;-61
2021/04/06 10:44:48;;;;;;;4.00;2.42;;;;;;;21.83;21.40;99772.66;5092948;28;20052;-61
2021/04/06 10:47:24;;;;;;;6.63;2.28;;;;;;;20.65;22.18;99768.56;5092201;28;20051;-61
2021/04/06 10:49:56;;;;;;;3.40;2.33;;;;;;;22.17;21.29;99763.63;5093152;28;20055;-61
2021/04/06 10:52:32;;;;;;;5.47;2.45;;;;;;;20.85;21.43;99763.34;5092649;28;20048;-61
2021/04/06 10:55:06;;;;;;;7.78;2.53;;;;;;;18.84;23.14;99773.41;5092270;28;20386;-61
2021/04/06 10:57:37;;;;;;;6.78;2.83;;;;;;;16.56;27.03;99774.41;5091831;28;20487;-61
2021/04/06 11:00:23;;;;;;;4.90;2.50;;;;;;;15.64;28.87;99774.84;5092596;28;20507;-61
2021/04/06 11:03:05;;;;;;;5.35;3.08;;;;;;;16.76;27.78;99769.59;5092097;28;20074;-61
2021/04/06 11:05:35;;;;;;;6.32;3.42;;;;;;;18.44;25.00;99757.25;5090240;28;20420;-61
2021/04/06 11:08:15;;;;;;;;;;;;;;;20.12;22.19;99754.22;5079287;28;20432;-62
2021/04/06 11:10:43;;;;;;;5.05;2.70;;;;;;;22.96;18.42;99743.38;5096617;28;19920;-61
2021/04/06 11:13:10;;;;;;;5.20;2.65;;;;;;;25.12;16.22;99731.13;5095804;28;20059;-61
2021/04/06 11:15:37;;;;;;;5.78;3.00;;;;;;;26.32;15.92;99731.38;5096154;28;20052;-61
2021/04/06 11:18:04;;;;;;;5.22;2.65;;;;;;;24.13;17.28;99732.13;5095292;28;20063;-61
2021/04/06 11:20:31;;;;;;;3.95;2.17;;;;;;;21.08;20.23;99726.16;5095571;28;20083;-61
2021/04/06 11:22:58;;;;;;;3.72;2.03;;;;;;;19.17;22.92;99722.91;5095727;28;20048;-60
2021/04/06 11:25:25;;;;;;;4.72;2.40;;;;;;;17.36;25.15;99726.78;5095759;28;20052;-60
2021/04/06 11:27:58;;;;;;;4.47;2.03;;;;;;;15.73;27.80;99729.78;5092809;28;20396;-61
2021/04/06 11:30:28;;;;;;;5.32;2.25;;;;;;;14.23;30.79;99766.81;5090321;28;20067;-61
2021/04/06 11:32:55;;;;;;;4.53;2.30;;;;;;;13.07;33.63;99746.84;5093186;28;20354;-61
2021/04/06 11:35:22;;;;;;;3.55;2.20;;;;;;;12.35;35.29;99748.00;5090536;28;20051;-61
2021/04/06 11:37:49;;;;;;;3.83;2.30;;;;;;;11.74;37.62;99740.13;5093720;28;20048;-62
2021/04/06 11:40:16;;;;;;;5.70;3.33;;;;;;;11.21;39.55;99736.06;5081013;28;20481;-61
2021/04/06 11:42:43;;;;;;;6.07;3.25;;;;;;;10.74;41.72;99744.50;5093196;28;20056;-62
2021/04/06 11:45:14;;;;;;;7.15;2.65;;;;;;;10.44;39.57;99730.50;5095000;28;20048;-61
2021/04/06 11:47:41;;;;;;;5.03;2.60;;;;;;;10.61;39.36;99734.38;5095684;28;20052;-62
2021/04/06 11:50:09;;;;;;;5.85;2.72;;;;;;;11.26;39.47;99724.72;5092526;28;20067;-61
2021/04/06 11:52:36;;;;;;;5.43;2.30;;;;;;;11.61;37.69;99716.09;5086642;28;20052;-61
2021/04/06 11:55:04;;;;;;;4.38;2.15;;;;;;;11.76;35.30;99712.72;5092069;28;20059;-61